| time (UTC) | temp F | wind direction | speed MPH | gust MPH | rain 1hr in | rain 24hr in | rain mn in | humidity % | barometer mb |
| 20260502220004 | 76 | 54 | 1.0 | 5.0 | 0.00 | 0.03 | 0.00 | 45 | 1020.5 |
| 20260502215504 | 76 | 0 | 0.0 | 5.0 | 0.00 | 0.04 | 0.00 | 44 | 1020.5 |
| 20260502215005 | 76 | 0 | 0.0 | 5.0 | 0.00 | 0.05 | 0.00 | 45 | 1020.6 |
| 20260502213504 | 75 | 105 | 1.0 | 7.0 | 0.00 | 0.08 | 0.00 | 42 | 1020.8 |
| 20260502213004 | 75 | 95 | 1.0 | 6.0 | 0.00 | 0.09 | 0.00 | 43 | 1020.8 |
| 20260502212504 | 75 | 96 | 1.0 | 5.0 | 0.00 | 0.10 | 0.00 | 44 | 1020.9 |
| 20260502212004 | 75 | 92 | 1.0 | 7.0 | 0.00 | 0.10 | 0.00 | 45 | 1021.0 |
| 20260502211504 | 75 | 92 | 1.0 | 7.0 | 0.00 | 0.10 | 0.00 | 43 | 1021.0 |
| 20260502211004 | 75 | 90 | 1.0 | 5.0 | 0.00 | 0.10 | 0.00 | 45 | 1021.1 |
| 20260502210504 | 75 | 72 | 1.0 | 6.0 | 0.00 | 0.10 | 0.00 | 44 | 1021.2 |
| 20260502205004 | 76 | 80 | 1.0 | 5.0 | 0.00 | 0.10 | 0.00 | 46 | 1021.4 |
| 20260502204504 | 75 | 89 | 1.0 | 7.0 | 0.00 | 0.10 | 0.00 | 45 | 1021.5 |
| 20260502203504 | 75 | 90 | 1.0 | 6.0 | 0.00 | 0.10 | 0.00 | 43 | 1021.6 |
| 20260502203005 | 75 | 100 | 1.0 | 8.0 | 0.00 | 0.10 | 0.00 | 44 | 1021.6 |
| 20260502202004 | 74 | 90 | 1.0 | 8.0 | 0.00 | 0.10 | 0.00 | 48 | 1021.7 |
| 20260502201504 | 74 | 90 | 2.0 | 8.0 | 0.00 | 0.10 | 0.00 | 44 | 1021.9 |
| 20260502201005 | 74 | 90 | 2.0 | 7.0 | 0.00 | 0.11 | 0.00 | 47 | 1021.9 |
| 20260502200504 | 74 | 81 | 2.0 | 6.0 | 0.00 | 0.11 | 0.00 | 45 | 1021.8 |
| 20260502195504 | 74 | 102 | 1.0 | 6.0 | 0.00 | 0.11 | 0.00 | 48 | 1021.7 |
| 20260502195004 | 74 | 109 | 1.0 | 8.0 | 0.00 | 0.11 | 0.00 | 48 | 1021.7 |
| 20260502194504 | 73 | 90 | 2.0 | 8.0 | 0.00 | 0.11 | 0.00 | 49 | 1021.7 |
| 20260502194004 | 74 | 68 | 1.0 | 7.0 | 0.00 | 0.12 | 0.00 | 47 | 1021.9 |
| 20260502193004 | 73 | 92 | 2.0 | 6.0 | 0.00 | 0.13 | 0.00 | 50 | 1021.9 |
| 20260502192504 | 73 | 96 | 1.0 | 6.0 | 0.00 | 0.14 | 0.00 | 50 | 1021.9 |
| 20260502192004 | 73 | 85 | 1.0 | 6.0 | 0.00 | 0.15 | 0.00 | 54 | 1021.9 |
| 20260502191505 | 73 | 76 | 1.0 | 6.0 | 0.00 | 0.15 | 0.00 | 50 | 1021.9 |
| 20260502191004 | 73 | 63 | 1.0 | 3.0 | 0.00 | 0.15 | 0.00 | 51 | 1022.0 |
| 20260502190504 | 73 | 67 | 1.0 | 7.0 | 0.00 | 0.15 | 0.00 | 53 | 1022.0 |
| 20260502190004 | 73 | 58 | 1.0 | 7.0 | 0.00 | 0.15 | 0.00 | 50 | 1022.0 |
| 20260502185504 | 73 | 0 | 0.0 | 4.0 | 0.00 | 0.15 | 0.00 | 52 | 1022.1 |
| 20260502185004 | 72 | 0 | 0.0 | 3.0 | 0.00 | 0.15 | 0.00 | 56 | 1022.1 |
| 20260502184504 | 72 | 0 | 0.0 | 3.0 | 0.00 | 0.15 | 0.00 | 56 | 1022.3 |
| 20260502183504 | 72 | 95 | 1.0 | 5.0 | 0.00 | 0.16 | 0.00 | 54 | 1022.4 |
| 20260502183004 | 72 | 72 | 1.0 | 6.0 | 0.00 | 0.16 | 0.00 | 54 | 1022.4 |
| 20260502182005 | 71 | 0 | 0.0 | 5.0 | 0.00 | 0.17 | 0.00 | 55 | 1022.5 |
| 20260502181004 | 71 | 0 | 0.0 | 5.0 | 0.00 | 0.24 | 0.00 | 58 | 1022.8 |
| 20260502180504 | 70 | 65 | 1.0 | 5.0 | 0.00 | 0.30 | 0.00 | 60 | 1022.9 |
| 20260502170504 | 69 | 76 | 1.0 | 5.0 | 0.00 | 0.35 | 0.00 | 63 | 1023.6 |
| 20260502164004 | 67 | 0 | 0.0 | 4.0 | 0.00 | 0.35 | 0.00 | 64 | 1023.6 |
| 20260502163504 | 68 | 0 | 0.0 | 4.0 | 0.00 | 0.35 | 0.00 | 61 | 1023.7 |
| 20260502163004 | 68 | 0 | 0.0 | 3.0 | 0.00 | 0.35 | 0.00 | 62 | 1023.7 |
| 20260502162503 | 67 | 0 | 0.0 | 3.0 | 0.00 | 0.35 | 0.00 | 62 | 1023.7 |
| 20260502161504 | 67 | 60 | 1.0 | 5.0 | 0.00 | 0.35 | 0.00 | 61 | 1023.8 |
| 20260502161004 | 67 | 59 | 1.0 | 4.0 | 0.00 | 0.35 | 0.00 | 63 | 1023.7 |
| 20260502160505 | 67 | 0 | 0.0 | 4.0 | 0.00 | 0.35 | 0.00 | 61 | 1023.8 |
| 20260502152004 | 64 | 0 | 0.0 | 2.0 | 0.00 | 0.38 | 0.00 | 73 | 1023.6 |
| 20260502151504 | 64 | 0 | 0.0 | 3.0 | 0.00 | 0.39 | 0.00 | 70 | 1023.6 |
| 20260502151004 | 63 | 0 | 0.0 | 3.0 | 0.00 | 0.39 | 0.00 | 74 | 1023.6 |
| 20260502150504 | 63 | 0 | 0.0 | 2.0 | 0.00 | 0.40 | 0.00 | 73 | 1023.6 |
| 20260502123504 | 49 | 0 | 0.0 | 0.0 | 0.00 | 0.55 | 0.00 | 89 | 1021.9 |
| 20260502123004 | 49 | 0 | 0.0 | 0.0 | 0.00 | 0.55 | 0.00 | 89 | 1021.9 |
| 20260502122503 | 48 | 0 | 0.0 | 0.0 | 0.00 | 0.56 | 0.00 | 89 | 1021.8 |
| 20260502122004 | 48 | 0 | 0.0 | 0.0 | 0.00 | 0.56 | 0.00 | 89 | 1021.7 |
| 20260502121004 | 48 | 0 | 0.0 | 0.0 | 0.00 | 0.56 | 0.00 | 89 | 1021.5 |
| 20260502120504 | 48 | 0 | 0.0 | 0.0 | 0.00 | 0.56 | 0.00 | 89 | 1021.4 |
| 20260502115004 | 48 | 0 | 0.0 | 0.0 | 0.00 | 0.65 | 0.00 | 89 | 1021.3 |
| 20260502114504 | 48 | 0 | 0.0 | 0.0 | 0.00 | 0.66 | 0.00 | 89 | 1021.3 |
| 20260502114004 | 48 | 0 | 0.0 | 0.0 | 0.00 | 0.67 | 0.00 | 89 | 1021.1 |
| 20260502113504 | 48 | 0 | 0.0 | 0.0 | 0.00 | 0.67 | 0.00 | 89 | 1021.1 |
| 20260502112504 | 48 | 0 | 0.0 | 0.0 | 0.00 | 0.68 | 0.00 | 90 | 1021.0 |
| 20260502112004 | 48 | 0 | 0.0 | 0.0 | 0.00 | 0.68 | 0.00 | 90 | 1021.0 |
| 20260502111504 | 48 | 0 | 0.0 | 0.0 | 0.00 | 0.69 | 0.00 | 90 | 1020.8 |
| 20260502111004 | 48 | 0 | 0.0 | 0.0 | 0.00 | 0.71 | 0.00 | 90 | 1020.7 |
| 20260502110504 | 48 | 0 | 0.0 | 0.0 | 0.00 | 0.71 | 0.00 | 90 | 1020.8 |
| 20260502110004 | 48 | 0 | 0.0 | 0.0 | 0.00 | 0.71 | 0.00 | 90 | 1020.7 |
| 20260502105504 | 48 | 0 | 0.0 | 0.0 | 0.00 | 0.72 | 0.00 | 90 | 1020.7 |
| 20260502105004 | 48 | 0 | 0.0 | 0.0 | 0.00 | 0.73 | 0.00 | 90 | 1020.5 |
| 20260502104503 | 48 | 0 | 0.0 | 0.0 | 0.00 | 0.74 | 0.00 | 90 | 1020.5 |
| 20260502104004 | 48 | 0 | 0.0 | 0.0 | 0.00 | 0.75 | 0.00 | 90 | 1020.3 |
| 20260502103504 | 49 | 0 | 0.0 | 0.0 | 0.00 | 0.76 | 0.00 | 90 | 1020.2 |
| 20260502103004 | 49 | 0 | 0.0 | 0.0 | 0.00 | 0.78 | 0.00 | 90 | 1020.1 |
| 20260502102504 | 49 | 0 | 0.0 | 0.0 | 0.00 | 0.80 | 0.00 | 90 | 1019.9 |
| 20260502102004 | 49 | 0 | 0.0 | 0.0 | 0.00 | 0.82 | 0.00 | 90 | 1019.9 |
| 20260502101504 | 49 | 0 | 0.0 | 0.0 | 0.00 | 0.84 | 0.00 | 90 | 1019.8 |
| 20260502101004 | 49 | 0 | 0.0 | 0.0 | 0.00 | 0.85 | 0.00 | 90 | 1019.7 |
| 20260502100503 | 49 | 0 | 0.0 | 0.0 | 0.00 | 0.85 | 0.00 | 89 | 1019.6 |
| 20260502091504 | 49 | 0 | 0.0 | 0.0 | 0.00 | 0.90 | 0.00 | 89 | 1019.3 |
| 20260502091004 | 49 | 0 | 0.0 | 0.0 | 0.00 | 0.91 | 0.00 | 89 | 1019.2 |
| 20260502090504 | 49 | 0 | 0.0 | 0.0 | 0.00 | 0.92 | 0.00 | 89 | 1019.2 |
| 20260502071504 | 50 | 0 | 0.0 | 0.0 | 0.00 | 0.95 | 0.00 | 89 | 1019.2 |
| 20260502071004 | 50 | 0 | 0.0 | 0.0 | 0.00 | 0.95 | 0.00 | 89 | 1019.1 |
| 20260502065004 | 50 | 0 | 0.0 | 0.0 | 0.00 | 0.95 | 0.00 | 90 | 1018.9 |
| 20260502064504 | 50 | 0 | 0.0 | 0.0 | 0.00 | 0.95 | 0.00 | 90 | 1019.0 |
| 20260502064005 | 51 | 0 | 0.0 | 0.0 | 0.00 | 0.95 | 0.00 | 90 | 1019.1 |
| 20260502063504 | 51 | 0 | 0.0 | 0.0 | 0.00 | 0.95 | 0.00 | 90 | 1019.1 |
| 20260502063004 | 51 | 0 | 0.0 | 0.0 | 0.00 | 0.95 | 0.00 | 90 | 1019.0 |
| 20260502062504 | 51 | 0 | 0.0 | 0.0 | 0.00 | 0.95 | 0.00 | 90 | 1019.0 |
| 20260502062003 | 51 | 0 | 0.0 | 0.0 | 0.00 | 0.95 | 0.00 | 90 | 1019.0 |
| 20260502061004 | 51 | 0 | 0.0 | 0.0 | 0.00 | 0.95 | 0.00 | 90 | 1019.2 |
| 20260502060504 | 51 | 0 | 0.0 | 0.0 | 0.00 | 0.95 | 0.00 | 90 | 1019.2 |
| 20260502060004 | 51 | 0 | 0.0 | 0.0 | 0.00 | 0.95 | 0.00 | 90 | 1019.3 |
| 20260502055004 | 52 | 0 | 0.0 | 0.0 | 0.00 | 0.95 | 0.00 | 90 | 1019.3 |
| 20260502054504 | 52 | 0 | 0.0 | 0.0 | 0.00 | 0.95 | 0.00 | 90 | 1019.2 |
| 20260502054003 | 52 | 0 | 0.0 | 0.0 | 0.00 | 0.95 | 0.00 | 90 | 1019.1 |
| 20260502053504 | 52 | 0 | 0.0 | 0.0 | 0.00 | 0.95 | 0.00 | 90 | 1019.0 |
| 20260502053004 | 52 | 0 | 0.0 | 0.0 | 0.00 | 0.95 | 0.00 | 90 | 1019.0 |
| 20260502052504 | 52 | 0 | 0.0 | 0.0 | 0.00 | 0.95 | 0.00 | 90 | 1018.9 |
| 20260502052004 | 52 | 0 | 0.0 | 0.0 | 0.00 | 0.95 | 0.00 | 90 | 1019.0 |
| 20260502051504 | 52 | 0 | 0.0 | 0.0 | 0.00 | 0.95 | 0.00 | 90 | 1019.0 |
| 20260502045004 | 53 | 0 | 0.0 | 0.0 | 0.00 | 0.96 | 0.96 | 90 | 1018.9 |
| 20260502044504 | 53 | 0 | 0.0 | 0.0 | 0.00 | 0.96 | 0.96 | 90 | 1018.9 |
| 20260502043504 | 53 | 0 | 0.0 | 0.0 | 0.00 | 0.96 | 0.96 | 90 | 1018.8 |
| 20260502043004 | 53 | 0 | 0.0 | 0.0 | 0.00 | 0.97 | 0.96 | 90 | 1018.9 |
| 20260502042004 | 53 | 0 | 0.0 | 0.0 | 0.00 | 0.97 | 0.96 | 90 | 1018.9 |
| 20260502041503 | 53 | 0 | 0.0 | 0.0 | 0.00 | 0.97 | 0.96 | 90 | 1018.8 |
| 20260502041004 | 53 | 0 | 0.0 | 0.0 | 0.00 | 0.97 | 0.96 | 90 | 1018.8 |
| 20260502040004 | 53 | 0 | 0.0 | 0.0 | 0.00 | 0.97 | 0.96 | 90 | 1018.8 |
| 20260502035504 | 53 | 0 | 0.0 | 0.0 | 0.00 | 0.97 | 0.96 | 90 | 1018.8 |
| 20260502035003 | 53 | 0 | 0.0 | 0.0 | 0.00 | 0.97 | 0.96 | 90 | 1018.9 |
| 20260502034504 | 54 | 0 | 0.0 | 0.0 | 0.00 | 0.97 | 0.96 | 90 | 1018.9 |
| 20260502034004 | 54 | 0 | 0.0 | 0.0 | 0.00 | 0.97 | 0.96 | 90 | 1018.9 |
| 20260502033504 | 54 | 0 | 0.0 | 0.0 | 0.00 | 0.97 | 0.96 | 90 | 1018.9 |
| 20260502032504 | 54 | 0 | 0.0 | 0.0 | 0.00 | 0.97 | 0.96 | 90 | 1018.8 |
| 20260502032004 | 54 | 0 | 0.0 | 0.0 | 0.00 | 0.98 | 0.96 | 91 | 1018.7 |
| 20260502031504 | 54 | 0 | 0.0 | 0.0 | 0.00 | 0.98 | 0.96 | 91 | 1018.6 |
| 20260502031003 | 54 | 0 | 0.0 | 2.0 | 0.00 | 0.98 | 0.96 | 91 | 1018.6 |
| 20260502030504 | 54 | 0 | 0.0 | 2.0 | 0.00 | 0.98 | 0.96 | 91 | 1018.5 |
| 20260502030004 | 54 | 0 | 0.0 | 2.0 | 0.00 | 0.98 | 0.96 | 91 | 1018.5 |
| 20260502025504 | 54 | 0 | 0.0 | 1.0 | 0.00 | 0.99 | 0.96 | 91 | 1018.4 |
| 20260502025004 | 54 | 0 | 0.0 | 1.0 | 0.00 | 1.00 | 0.96 | 91 | 1018.4 |
| 20260502023504 | 53 | 0 | 0.0 | 4.0 | 0.00 | 1.04 | 0.96 | 90 | 1018.2 |
| 20260502023004 | 53 | 0 | 0.0 | 4.0 | 0.00 | 1.04 | 0.96 | 90 | 1018.0 |
| 20260502022503 | 53 | 0 | 0.0 | 4.0 | 0.00 | 1.04 | 0.96 | 90 | 1017.9 |
| 20260502022004 | 53 | 0 | 0.0 | 4.0 | 0.00 | 1.04 | 0.96 | 90 | 1017.8 |
| 20260502021004 | 53 | 0 | 0.0 | 4.0 | 0.00 | 1.04 | 0.96 | 90 | 1017.6 |
| 20260502020504 | 53 | 61 | 1.0 | 4.0 | 0.01 | 1.04 | 0.96 | 90 | 1017.4 |
| 20260502020004 | 53 | 61 | 1.0 | 4.0 | 0.01 | 1.04 | 0.96 | 90 | 1017.4 |
| 20260502015503 | 53 | 60 | 1.0 | 4.0 | 0.01 | 1.04 | 0.96 | 90 | 1017.3 |
| 20260502015004 | 53 | 0 | 0.0 | 7.0 | 0.01 | 1.04 | 0.96 | 90 | 1017.2 |
| 20260502014004 | 53 | 0 | 0.0 | 4.0 | 0.01 | 1.04 | 0.96 | 90 | 1016.9 |
| 20260502013004 | 53 | 65 | 1.0 | 7.0 | 0.01 | 1.04 | 0.96 | 90 | 1016.8 |
| 20260502012503 | 53 | 69 | 1.0 | 5.0 | 0.01 | 1.04 | 0.96 | 90 | 1016.8 |
| 20260502012004 | 53 | 60 | 1.0 | 7.0 | 0.01 | 1.04 | 0.96 | 90 | 1016.7 |
| 20260502011504 | 53 | 63 | 2.0 | 9.0 | 0.01 | 1.04 | 0.96 | 90 | 1016.6 |
| 20260502011004 | 53 | 56 | 2.0 | 9.0 | 0.01 | 1.04 | 0.96 | 91 | 1016.5 |
| 20260502010004 | 53 | 42 | 1.0 | 7.0 | 0.00 | 1.03 | 0.95 | 90 | 1016.4 |
| 20260502005504 | 53 | 52 | 1.0 | 7.0 | 0.00 | 1.03 | 0.95 | 90 | 1016.3 |
| 20260502005004 | 53 | 56 | 1.0 | 7.0 | 0.00 | 1.03 | 0.95 | 90 | 1016.1 |
| 20260502004503 | 53 | 55 | 1.0 | 4.0 | 0.00 | 1.03 | 0.95 | 89 | 1016.0 |
| 20260502004004 | 53 | 57 | 1.0 | 4.0 | 0.00 | 1.03 | 0.95 | 89 | 1016.0 |
| 20260502003504 | 53 | 0 | 0.0 | 4.0 | 0.00 | 1.03 | 0.95 | 89 | 1016.0 |
| 20260502002504 | 52 | 54 | 1.0 | 8.0 | 0.00 | 1.03 | 0.95 | 89 | 1015.7 |
| 20260502001503 | 53 | 49 | 2.0 | 8.0 | 0.00 | 1.03 | 0.95 | 89 | 1015.5 |
| 20260502001004 | 53 | 53 | 1.0 | 8.0 | 0.00 | 1.03 | 0.95 | 89 | 1015.5 |
| 20260502000504 | 53 | 55 | 1.0 | 7.0 | 0.00 | 1.03 | 0.95 | 89 | 1015.6 |
| 20260502000004 | 53 | 52 | 2.0 | 9.0 | 0.00 | 1.03 | 0.95 | 89 | 1015.4 |
| 20260501235504 | 53 | 52 | 1.0 | 9.0 | 0.00 | 1.03 | 0.95 | 89 | 1015.3 |
| 20260501234504 | 53 | 60 | 2.0 | 9.0 | 0.00 | 1.03 | 0.95 | 89 | 1015.7 |
| 20260501234004 | 53 | 57 | 1.0 | 9.0 | 0.00 | 1.03 | 0.95 | 89 | 1015.5 |
| 20260501233504 | 54 | 56 | 1.0 | 7.0 | 0.00 | 1.03 | 0.95 | 89 | 1015.7 |
| 20260501232504 | 54 | 69 | 1.0 | 8.0 | 0.00 | 1.03 | 0.95 | 89 | 1015.2 |
| 20260501231504 | 54 | 55 | 1.0 | 8.0 | 0.01 | 1.03 | 0.95 | 89 | 1014.7 |
| 20260501230503 | 54 | 50 | 1.0 | 7.0 | 0.02 | 1.03 | 0.95 | 89 | 1015.0 |
| 20260501230004 | 54 | 56 | 1.0 | 6.0 | 0.02 | 1.03 | 0.95 | 89 | 1015.1 |
| 20260501225504 | 54 | 0 | 0.0 | 7.0 | 0.03 | 1.03 | 0.95 | 89 | 1015.1 |
| 20260501225004 | 54 | 7 | 1.0 | 7.0 | 0.04 | 1.03 | 0.95 | 89 | 1015.1 |
| 20260501224504 | 54 | 21 | 1.0 | 6.0 | 0.04 | 1.03 | 0.95 | 89 | 1014.9 |
| 20260501224004 | 55 | 72 | 1.0 | 5.0 | 0.05 | 1.03 | 0.95 | 89 | 1014.7 |
| 20260501223504 | 55 | 68 | 1.0 | 7.0 | 0.07 | 1.03 | 0.95 | 89 | 1014.5 |
| 20260501223004 | 55 | 66 | 1.0 | 7.0 | 0.08 | 1.03 | 0.95 | 89 | 1014.5 |
| 20260501222503 | 56 | 57 | 1.0 | 7.0 | 0.09 | 1.03 | 0.95 | 89 | 1014.7 |
| 20260501222004 | 56 | 57 | 1.0 | 7.0 | 0.09 | 1.03 | 0.95 | 89 | 1014.8 |
| 20260501221504 | 55 | 62 | 1.0 | 7.0 | 0.08 | 1.02 | 0.94 | 89 | 1014.6 |
| 20260501220504 | 55 | 89 | 1.0 | 9.0 | 0.07 | 1.01 | 0.93 | 89 | 1014.6 |